Аэропорт: Кневичи. Владивосток

ICAO: UHWW

METAR:
2018/11/19 10:00
UHWW 191000Z 33001MPS 9999 NSC M04/M09 Q1023 R25L/0///70 NOSIG RMK QFE766
METAR:
2018/11/19 09:21
TAF UHWW 190800Z 1909/2009 36003MPS 9999 BKN030 
     FM191200 32003MPS 4000 HZ SCT030 
     FM200100 20003MPS 9999 BKN025